sensor_id;sensor_type;location;lat;lon;timestamp;P1;durP1;ratioP1;P2;durP2;ratioP2
61806;SDS011;47726;52.766;6.606;2022-12-31T00:00:35;9.07;;;4.68;;
61806;SDS011;47726;52.766;6.606;2022-12-31T00:03:07;8.48;;;4.40;;
61806;SDS011;47726;52.766;6.606;2022-12-31T00:05:34;7.53;;;4.38;;
61806;SDS011;47726;52.766;6.606;2022-12-31T00:08:00;8.20;;;4.30;;
61806;SDS011;47726;52.766;6.606;2022-12-31T00:10:26;6.72;;;4.22;;
61806;SDS011;47726;52.766;6.606;2022-12-31T00:12:52;8.23;;;4.32;;
61806;SDS011;47726;52.766;6.606;2022-12-31T00:15:18;7.00;;;4.28;;
61806;SDS011;47726;52.766;6.606;2022-12-31T00:17:44;6.78;;;4.45;;
61806;SDS011;47726;52.766;6.606;2022-12-31T00:20:09;8.55;;;4.60;;
61806;SDS011;47726;52.766;6.606;2022-12-31T00:22:35;9.40;;;4.68;;
61806;SDS011;47726;52.766;6.606;2022-12-31T00:25:01;8.40;;;4.50;;
61806;SDS011;47726;52.766;6.606;2022-12-31T00:27:30;7.72;;;4.32;;
61806;SDS011;47726;52.766;6.606;2022-12-31T00:29:56;7.55;;;4.65;;
61806;SDS011;47726;52.766;6.606;2022-12-31T00:32:22;6.82;;;4.40;;
61806;SDS011;47726;52.766;6.606;2022-12-31T00:34:48;8.57;;;4.60;;
61806;SDS011;47726;52.766;6.606;2022-12-31T00:37:13;11.40;;;4.72;;
61806;SDS011;47726;52.766;6.606;2022-12-31T00:39:39;7.95;;;4.28;;
61806;SDS011;47726;52.766;6.606;2022-12-31T00:42:04;10.23;;;4.70;;
61806;SDS011;47726;52.766;6.606;2022-12-31T00:44:30;6.60;;;4.20;;
61806;SDS011;47726;52.766;6.606;2022-12-31T00:46:56;6.90;;;4.30;;
61806;SDS011;47726;52.766;6.606;2022-12-31T00:49:21;5.85;;;4.03;;
61806;SDS011;47726;52.766;6.606;2022-12-31T00:51:47;6.65;;;3.90;;
61806;SDS011;47726;52.766;6.606;2022-12-31T00:54:12;8.07;;;4.15;;
61806;SDS011;47726;52.766;6.606;2022-12-31T00:56:38;9.35;;;4.38;;
61806;SDS011;47726;52.766;6.606;2022-12-31T00:59:04;7.95;;;4.32;;
61806;SDS011;47726;52.766;6.606;2022-12-31T01:01:31;6.97;;;4.00;;
61806;SDS011;47726;52.766;6.606;2022-12-31T01:03:59;7.80;;;4.30;;
61806;SDS011;47726;52.766;6.606;2022-12-31T01:06:27;6.38;;;3.97;;
61806;SDS011;47726;52.766;6.606;2022-12-31T01:08:52;6.75;;;4.20;;
61806;SDS011;47726;52.766;6.606;2022-12-31T01:11:19;5.85;;;4.07;;
61806;SDS011;47726;52.766;6.606;2022-12-31T01:13:54;7.60;;;3.88;;
61806;SDS011;47726;52.766;6.606;2022-12-31T01:16:26;5.85;;;3.80;;
61806;SDS011;47726;52.766;6.606;2022-12-31T01:21:23;6.25;;;3.60;;
61806;SDS011;47726;52.766;6.606;2022-12-31T01:23:49;6.80;;;3.72;;
61806;SDS011;47726;52.766;6.606;2022-12-31T01:26:15;6.20;;;3.65;;
61806;SDS011;47726;52.766;6.606;2022-12-31T01:28:41;6.32;;;3.72;;
61806;SDS011;47726;52.766;6.606;2022-12-31T01:31:08;5.45;;;3.45;;
61806;SDS011;47726;52.766;6.606;2022-12-31T01:33:35;6.20;;;3.58;;
61806;SDS011;47726;52.766;6.606;2022-12-31T01:36:05;7.55;;;3.67;;
61806;SDS011;47726;52.766;6.606;2022-12-31T01:38:34;4.05;;;3.05;;
61806;SDS011;47726;52.766;6.606;2022-12-31T01:41:00;4.82;;;3.15;;
61806;SDS011;47726;52.766;6.606;2022-12-31T01:43:46;5.93;;;3.00;;
61806;SDS011;47726;52.766;6.606;2022-12-31T01:46:24;5.07;;;3.05;;
61806;SDS011;47726;52.766;6.606;2022-12-31T01:49:10;4.72;;;2.80;;
61806;SDS011;47726;52.766;6.606;2022-12-31T01:51:44;5.25;;;3.08;;
61806;SDS011;47726;52.766;6.606;2022-12-31T01:54:14;4.30;;;2.88;;
61806;SDS011;47726;52.766;6.606;2022-12-31T01:56:44;5.05;;;2.88;;
61806;SDS011;47726;52.766;6.606;2022-12-31T01:59:11;5.47;;;3.00;;
61806;SDS011;47726;52.766;6.606;2022-12-31T02:01:40;5.03;;;2.75;;
61806;SDS011;47726;52.766;6.606;2022-12-31T02:04:07;3.30;;;2.60;;
61806;SDS011;47726;52.766;6.606;2022-12-31T02:06:40;4.68;;;2.65;;
61806;SDS011;47726;52.766;6.606;2022-12-31T02:09:12;4.60;;;2.70;;
61806;SDS011;47726;52.766;6.606;2022-12-31T02:11:39;4.13;;;2.60;;
61806;SDS011;47726;52.766;6.606;2022-12-31T02:14:08;3.55;;;2.53;;
61806;SDS011;47726;52.766;6.606;2022-12-31T02:16:51;3.67;;;2.40;;
61806;SDS011;47726;52.766;6.606;2022-12-31T02:22:11;3.20;;;2.30;;
61806;SDS011;47726;52.766;6.606;2022-12-31T02:25:05;4.90;;;2.38;;
61806;SDS011;47726;52.766;6.606;2022-12-31T02:30:17;3.33;;;2.17;;
61806;SDS011;47726;52.766;6.606;2022-12-31T02:32:47;3.03;;;1.80;;
61806;SDS011;47726;52.766;6.606;2022-12-31T02:37:54;3.63;;;1.83;;
61806;SDS011;47726;52.766;6.606;2022-12-31T02:40:28;3.05;;;1.70;;
61806;SDS011;47726;52.766;6.606;2022-12-31T02:42:54;4.70;;;1.75;;
61806;SDS011;47726;52.766;6.606;2022-12-31T02:45:21;2.75;;;1.73;;
61806;SDS011;47726;52.766;6.606;2022-12-31T02:48:14;3.78;;;1.73;;
61806;SDS011;47726;52.766;6.606;2022-12-31T02:51:11;3.72;;;1.65;;
61806;SDS011;47726;52.766;6.606;2022-12-31T02:54:01;3.47;;;1.88;;
61806;SDS011;47726;52.766;6.606;2022-12-31T02:59:39;4.97;;;2.00;;
61806;SDS011;47726;52.766;6.606;2022-12-31T03:02:28;3.42;;;1.95;;
61806;SDS011;47726;52.766;6.606;2022-12-31T03:04:57;3.58;;;1.90;;
61806;SDS011;47726;52.766;6.606;2022-12-31T03:07:27;3.22;;;2.10;;
61806;SDS011;47726;52.766;6.606;2022-12-31T03:09:54;4.90;;;2.40;;
61806;SDS011;47726;52.766;6.606;2022-12-31T03:12:21;3.17;;;2.20;;
61806;SDS011;47726;52.766;6.606;2022-12-31T03:15:09;3.15;;;2.25;;
61806;SDS011;47726;52.766;6.606;2022-12-31T03:17:46;5.00;;;2.45;;
61806;SDS011;47726;52.766;6.606;2022-12-31T03:20:31;3.17;;;2.30;;
61806;SDS011;47726;52.766;6.606;2022-12-31T03:23:34;3.35;;;2.20;;
61806;SDS011;47726;52.766;6.606;2022-12-31T03:26:05;5.07;;;2.53;;
61806;SDS011;47726;52.766;6.606;2022-12-31T03:28:34;5.35;;;2.40;;
61806;SDS011;47726;52.766;6.606;2022-12-31T03:31:01;3.88;;;2.55;;
61806;SDS011;47726;52.766;6.606;2022-12-31T03:33:45;6.00;;;2.60;;
61806;SDS011;47726;52.766;6.606;2022-12-31T03:36:12;6.18;;;2.60;;
61806;SDS011;47726;52.766;6.606;2022-12-31T03:38:38;3.75;;;2.50;;
61806;SDS011;47726;52.766;6.606;2022-12-31T03:41:05;5.05;;;2.80;;
61806;SDS011;47726;52.766;6.606;2022-12-31T03:43:30;4.28;;;2.60;;
61806;SDS011;47726;52.766;6.606;2022-12-31T03:45:56;5.68;;;3.03;;
61806;SDS011;47726;52.766;6.606;2022-12-31T03:48:24;3.72;;;2.75;;
61806;SDS011;47726;52.766;6.606;2022-12-31T03:50:50;3.83;;;2.60;;
61806;SDS011;47726;52.766;6.606;2022-12-31T03:53:16;3.38;;;2.70;;
61806;SDS011;47726;52.766;6.606;2022-12-31T03:55:42;5.20;;;2.60;;
61806;SDS011;47726;52.766;6.606;2022-12-31T03:58:07;3.80;;;2.80;;
61806;SDS011;47726;52.766;6.606;2022-12-31T04:00:33;4.28;;;3.00;;
61806;SDS011;47726;52.766;6.606;2022-12-31T04:02:59;5.72;;;2.88;;
61806;SDS011;47726;52.766;6.606;2022-12-31T04:05:25;4.15;;;2.70;;
61806;SDS011;47726;52.766;6.606;2022-12-31T04:07:50;4.70;;;3.00;;
61806;SDS011;47726;52.766;6.606;2022-12-31T04:10:16;4.88;;;2.83;;
61806;SDS011;47726;52.766;6.606;2022-12-31T04:12:43;4.35;;;2.70;;
61806;SDS011;47726;52.766;6.606;2022-12-31T04:15:10;4.10;;;2.85;;
61806;SDS011;47726;52.766;6.606;2022-12-31T04:17:41;4.60;;;2.90;;
61806;SDS011;47726;52.766;6.606;2022-12-31T04:20:07;4.55;;;2.75;;
61806;SDS011;47726;52.766;6.606;2022-12-31T04:22:33;5.35;;;2.80;;
61806;SDS011;47726;52.766;6.606;2022-12-31T04:24:58;4.22;;;2.88;;
61806;SDS011;47726;52.766;6.606;2022-12-31T04:27:24;5.35;;;3.10;;
61806;SDS011;47726;52.766;6.606;2022-12-31T04:29:49;4.60;;;2.90;;
61806;SDS011;47726;52.766;6.606;2022-12-31T04:32:15;5.28;;;2.83;;
61806;SDS011;47726;52.766;6.606;2022-12-31T04:34:40;6.43;;;2.83;;
61806;SDS011;47726;52.766;6.606;2022-12-31T04:37:06;6.68;;;2.45;;
61806;SDS011;47726;52.766;6.606;2022-12-31T04:39:32;5.25;;;2.90;;
61806;SDS011;47726;52.766;6.606;2022-12-31T04:41:57;5.50;;;2.47;;
61806;SDS011;47726;52.766;6.606;2022-12-31T04:44:23;6.43;;;2.60;;
61806;SDS011;47726;52.766;6.606;2022-12-31T04:46:48;5.90;;;2.70;;
61806;SDS011;47726;52.766;6.606;2022-12-31T04:49:14;6.40;;;2.70;;
61806;SDS011;47726;52.766;6.606;2022-12-31T04:51:39;5.55;;;2.40;;
61806;SDS011;47726;52.766;6.606;2022-12-31T04:54:05;4.72;;;2.60;;
61806;SDS011;47726;52.766;6.606;2022-12-31T04:56:31;4.55;;;2.60;;
61806;SDS011;47726;52.766;6.606;2022-12-31T04:58:57;3.85;;;2.50;;
61806;SDS011;47726;52.766;6.606;2022-12-31T05:01:23;5.38;;;2.70;;
61806;SDS011;47726;52.766;6.606;2022-12-31T05:03:49;4.60;;;2.65;;
61806;SDS011;47726;52.766;6.606;2022-12-31T05:06:19;3.35;;;2.35;;
61806;SDS011;47726;52.766;6.606;2022-12-31T05:08:46;3.25;;;2.28;;
61806;SDS011;47726;52.766;6.606;2022-12-31T05:11:13;5.72;;;2.40;;
61806;SDS011;47726;52.766;6.606;2022-12-31T05:13:39;3.65;;;2.30;;
61806;SDS011;47726;52.766;6.606;2022-12-31T05:16:05;4.65;;;2.35;;
61806;SDS011;47726;52.766;6.606;2022-12-31T05:18:31;5.60;;;2.33;;
61806;SDS011;47726;52.766;6.606;2022-12-31T05:20:57;4.43;;;2.42;;
61806;SDS011;47726;52.766;6.606;2022-12-31T05:23:23;4.35;;;2.30;;
61806;SDS011;47726;52.766;6.606;2022-12-31T05:25:49;3.90;;;2.50;;
61806;SDS011;47726;52.766;6.606;2022-12-31T05:28:15;5.80;;;2.60;;
61806;SDS011;47726;52.766;6.606;2022-12-31T05:30:41;3.92;;;2.78;;
61806;SDS011;47726;52.766;6.606;2022-12-31T05:33:08;4.47;;;2.95;;
61806;SDS011;47726;52.766;6.606;2022-12-31T05:35:33;4.82;;;3.08;;
61806;SDS011;47726;52.766;6.606;2022-12-31T05:37:59;5.25;;;3.50;;
61806;SDS011;47726;52.766;6.606;2022-12-31T05:40:25;7.50;;;3.50;;
61806;SDS011;47726;52.766;6.606;2022-12-31T05:42:51;5.75;;;3.83;;
61806;SDS011;47726;52.766;6.606;2022-12-31T05:45:17;5.65;;;3.70;;
61806;SDS011;47726;52.766;6.606;2022-12-31T05:47:43;6.70;;;4.20;;
61806;SDS011;47726;52.766;6.606;2022-12-31T05:50:09;4.90;;;3.80;;
61806;SDS011;47726;52.766;6.606;2022-12-31T05:52:37;6.05;;;4.00;;
61806;SDS011;47726;52.766;6.606;2022-12-31T05:55:02;5.43;;;4.18;;
61806;SDS011;47726;52.766;6.606;2022-12-31T05:57:29;6.47;;;4.10;;
61806;SDS011;47726;52.766;6.606;2022-12-31T05:59:54;5.03;;;4.07;;
61806;SDS011;47726;52.766;6.606;2022-12-31T06:02:20;5.55;;;4.25;;
61806;SDS011;47726;52.766;6.606;2022-12-31T06:04:47;7.18;;;4.15;;
61806;SDS011;47726;52.766;6.606;2022-12-31T06:07:12;6.32;;;4.13;;
61806;SDS011;47726;52.766;6.606;2022-12-31T06:09:38;5.30;;;4.13;;
61806;SDS011;47726;52.766;6.606;2022-12-31T06:12:04;6.13;;;4.20;;
61806;SDS011;47726;52.766;6.606;2022-12-31T06:14:30;5.72;;;4.10;;
61806;SDS011;47726;52.766;6.606;2022-12-31T06:16:55;5.82;;;4.07;;
61806;SDS011;47726;52.766;6.606;2022-12-31T06:19:21;4.55;;;4.15;;
61806;SDS011;47726;52.766;6.606;2022-12-31T06:21:47;9.27;;;4.38;;
61806;SDS011;47726;52.766;6.606;2022-12-31T06:24:12;5.32;;;3.90;;
61806;SDS011;47726;52.766;6.606;2022-12-31T06:26:38;5.78;;;4.07;;
61806;SDS011;47726;52.766;6.606;2022-12-31T06:29:03;5.18;;;4.10;;
61806;SDS011;47726;52.766;6.606;2022-12-31T06:31:29;4.75;;;3.90;;
61806;SDS011;47726;52.766;6.606;2022-12-31T06:33:54;5.85;;;4.18;;
61806;SDS011;47726;52.766;6.606;2022-12-31T06:36:20;4.38;;;3.85;;
61806;SDS011;47726;52.766;6.606;2022-12-31T06:38:46;6.88;;;4.35;;
61806;SDS011;47726;52.766;6.606;2022-12-31T06:41:14;5.53;;;3.88;;
61806;SDS011;47726;52.766;6.606;2022-12-31T06:43:41;5.20;;;3.60;;
61806;SDS011;47726;52.766;6.606;2022-12-31T06:46:08;5.72;;;3.90;;
61806;SDS011;47726;52.766;6.606;2022-12-31T06:48:36;4.53;;;3.60;;
61806;SDS011;47726;52.766;6.606;2022-12-31T06:51:05;4.43;;;3.40;;
61806;SDS011;47726;52.766;6.606;2022-12-31T06:53:34;4.53;;;3.60;;
61806;SDS011;47726;52.766;6.606;2022-12-31T06:56:04;4.57;;;3.20;;
61806;SDS011;47726;52.766;6.606;2022-12-31T06:58:30;4.70;;;3.70;;
61806;SDS011;47726;52.766;6.606;2022-12-31T07:01:19;4.38;;;3.70;;
61806;SDS011;47726;52.766;6.606;2022-12-31T07:04:12;5.18;;;3.40;;
61806;SDS011;47726;52.766;6.606;2022-12-31T07:12:03;4.25;;;3.60;;
61806;SDS011;47726;52.766;6.606;2022-12-31T07:14:53;3.92;;;3.50;;
61806;SDS011;47726;52.766;6.606;2022-12-31T07:22:31;3.75;;;3.17;;
61806;SDS011;47726;52.766;6.606;2022-12-31T07:24:57;3.67;;;3.13;;
61806;SDS011;47726;52.766;6.606;2022-12-31T07:30:21;3.72;;;3.10;;
61806;SDS011;47726;52.766;6.606;2022-12-31T07:40:49;4.28;;;3.10;;
61806;SDS011;47726;52.766;6.606;2022-12-31T07:43:33;3.88;;;3.00;;
61806;SDS011;47726;52.766;6.606;2022-12-31T07:48:57;4.78;;;3.20;;
61806;SDS011;47726;52.766;6.606;2022-12-31T07:51:23;3.65;;;3.30;;
61806;SDS011;47726;52.766;6.606;2022-12-31T07:53:49;5.38;;;3.45;;
61806;SDS011;47726;52.766;6.606;2022-12-31T07:56:15;3.58;;;3.28;;
61806;SDS011;47726;52.766;6.606;2022-12-31T07:58:49;4.60;;;3.50;;
61806;SDS011;47726;52.766;6.606;2022-12-31T08:01:28;5.80;;;3.80;;
61806;SDS011;47726;52.766;6.606;2022-12-31T08:09:41;4.55;;;4.00;;
61806;SDS011;47726;52.766;6.606;2022-12-31T08:12:20;4.97;;;4.03;;
61806;SDS011;47726;52.766;6.606;2022-12-31T08:14:47;4.72;;;4.20;;
61806;SDS011;47726;52.766;6.606;2022-12-31T08:17:14;5.35;;;3.80;;
61806;SDS011;47726;52.766;6.606;2022-12-31T08:19:41;4.82;;;3.90;;
61806;SDS011;47726;52.766;6.606;2022-12-31T08:38:59;3.90;;;3.60;;
61806;SDS011;47726;52.766;6.606;2022-12-31T08:41:36;4.90;;;3.78;;
61806;SDS011;47726;52.766;6.606;2022-12-31T08:47:26;4.28;;;3.58;;
61806;SDS011;47726;52.766;6.606;2022-12-31T08:50:04;4.05;;;3.65;;
61806;SDS011;47726;52.766;6.606;2022-12-31T08:55:02;4.43;;;3.80;;
61806;SDS011;47726;52.766;6.606;2022-12-31T09:00:14;6.75;;;4.10;;
61806;SDS011;47726;52.766;6.606;2022-12-31T09:05:27;4.32;;;3.70;;
61806;SDS011;47726;52.766;6.606;2022-12-31T09:13:21;15.18;;;9.07;;
61806;SDS011;47726;52.766;6.606;2022-12-31T09:15:58;34.67;;;11.35;;
61806;SDS011;47726;52.766;6.606;2022-12-31T09:18:50;89.60;;;25.73;;
61806;SDS011;47726;52.766;6.606;2022-12-31T09:21:16;88.80;;;44.08;;
61806;SDS011;47726;52.766;6.606;2022-12-31T09:23:42;1107.80;;;632.58;;
61806;SDS011;47726;52.766;6.606;2022-12-31T09:26:19;1110.22;;;643.22;;
61806;SDS011;47726;52.766;6.606;2022-12-31T09:37:16;526.00;;;344.48;;
61806;SDS011;47726;52.766;6.606;2022-12-31T09:40:09;349.55;;;223.82;;
61806;SDS011;47726;52.766;6.606;2022-12-31T09:51:31;56.53;;;38.88;;
61806;SDS011;47726;52.766;6.606;2022-12-31T09:59:25;36.63;;;30.40;;
61806;SDS011;47726;52.766;6.606;2022-12-31T10:10:21;10.07;;;7.90;;
61806;SDS011;47726;52.766;6.606;2022-12-31T10:13:03;5.93;;;5.30;;
61806;SDS011;47726;52.766;6.606;2022-12-31T10:15:52;5.80;;;4.50;;
61806;SDS011;47726;52.766;6.606;2022-12-31T10:21:37;5.88;;;5.10;;
61806;SDS011;47726;52.766;6.606;2022-12-31T10:26:47;6.18;;;4.90;;
61806;SDS011;47726;52.766;6.606;2022-12-31T10:35:00;72.63;;;57.33;;
61806;SDS011;47726;52.766;6.606;2022-12-31T10:57:05;10.18;;;6.63;;
61806;SDS011;47726;52.766;6.606;2022-12-31T11:02:39;8.68;;;5.05;;
61806;SDS011;47726;52.766;6.606;2022-12-31T11:06:09;7.30;;;4.85;;
61806;SDS011;47726;52.766;6.606;2022-12-31T11:08:44;6.53;;;3.40;;
61806;SDS011;47726;52.766;6.606;2022-12-31T11:17:25;5.15;;;2.70;;
61806;SDS011;47726;52.766;6.606;2022-12-31T11:23:20;3.45;;;2.00;;
61806;SDS011;47726;52.766;6.606;2022-12-31T11:25:57;3.10;;;2.20;;
61806;SDS011;47726;52.766;6.606;2022-12-31T11:40:18;50.50;;;34.55;;
61806;SDS011;47726;52.766;6.606;2022-12-31T11:48:38;24.92;;;17.35;;
61806;SDS011;47726;52.766;6.606;2022-12-31T11:59:25;12.45;;;8.38;;
61806;SDS011;47726;52.766;6.606;2022-12-31T12:04:42;9.57;;;5.75;;
61806;SDS011;47726;52.766;6.606;2022-12-31T12:07:11;8.05;;;5.30;;
61806;SDS011;47726;52.766;6.606;2022-12-31T12:09:39;7.88;;;4.45;;
61806;SDS011;47726;52.766;6.606;2022-12-31T12:12:07;6.20;;;3.85;;
61806;SDS011;47726;52.766;6.606;2022-12-31T12:17:07;4.68;;;2.75;;
61806;SDS011;47726;52.766;6.606;2022-12-31T12:19:46;4.88;;;3.20;;
61806;SDS011;47726;52.766;6.606;2022-12-31T12:22:19;3.58;;;2.50;;
61806;SDS011;47726;52.766;6.606;2022-12-31T12:24:54;2.78;;;2.20;;
61806;SDS011;47726;52.766;6.606;2022-12-31T12:27:31;2.80;;;1.92;;
61806;SDS011;47726;52.766;6.606;2022-12-31T12:30:09;4.07;;;1.92;;
61806;SDS011;47726;52.766;6.606;2022-12-31T12:32:38;3.10;;;1.98;;
61806;SDS011;47726;52.766;6.606;2022-12-31T12:35:24;4.20;;;2.22;;
61806;SDS011;47726;52.766;6.606;2022-12-31T12:38:02;16.85;;;13.43;;
61806;SDS011;47726;52.766;6.606;2022-12-31T12:40:30;15.07;;;9.07;;
61806;SDS011;47726;52.766;6.606;2022-12-31T12:42:56;10.50;;;5.68;;
61806;SDS011;47726;52.766;6.606;2022-12-31T12:45:26;8.13;;;4.30;;
61806;SDS011;47726;52.766;6.606;2022-12-31T12:48:00;6.70;;;3.45;;
61806;SDS011;47726;52.766;6.606;2022-12-31T12:50:34;6.68;;;3.50;;
61806;SDS011;47726;52.766;6.606;2022-12-31T12:58:40;108.78;;;99.82;;
61806;SDS011;47726;52.766;6.606;2022-12-31T13:07:15;24.45;;;22.17;;
61806;SDS011;47726;52.766;6.606;2022-12-31T13:15:18;9.02;;;7.25;;
61806;SDS011;47726;52.766;6.606;2022-12-31T13:20:46;6.93;;;4.18;;
61806;SDS011;47726;52.766;6.606;2022-12-31T13:23:18;5.10;;;3.70;;
61806;SDS011;47726;52.766;6.606;2022-12-31T13:25:57;4.65;;;3.60;;
61806;SDS011;47726;52.766;6.606;2022-12-31T13:28:39;5.45;;;3.97;;
61806;SDS011;47726;52.766;6.606;2022-12-31T13:31:30;6.75;;;3.10;;
61806;SDS011;47726;52.766;6.606;2022-12-31T13:33:58;5.82;;;3.80;;
61806;SDS011;47726;52.766;6.606;2022-12-31T13:36:29;14.85;;;13.30;;
61806;SDS011;47726;52.766;6.606;2022-12-31T13:38:59;10.55;;;9.10;;
61806;SDS011;47726;52.766;6.606;2022-12-31T13:41:31;8.68;;;7.55;;
61806;SDS011;47726;52.766;6.606;2022-12-31T13:49:42;8.98;;;6.75;;
61806;SDS011;47726;52.766;6.606;2022-12-31T13:55:12;10.57;;;9.20;;
61806;SDS011;47726;52.766;6.606;2022-12-31T13:58:02;8.20;;;6.60;;
61806;SDS011;47726;52.766;6.606;2022-12-31T14:00:27;52.47;;;47.25;;
61806;SDS011;47726;52.766;6.606;2022-12-31T14:03:07;73.55;;;61.88;;
61806;SDS011;47726;52.766;6.606;2022-12-31T14:08:17;126.07;;;96.00;;
61806;SDS011;47726;52.766;6.606;2022-12-31T14:13:40;137.77;;;118.57;;
61806;SDS011;47726;52.766;6.606;2022-12-31T14:16:23;100.07;;;81.07;;
61806;SDS011;47726;52.766;6.606;2022-12-31T14:21:51;38.55;;;34.95;;
61806;SDS011;47726;52.766;6.606;2022-12-31T14:24:41;15.05;;;13.45;;
61806;SDS011;47726;52.766;6.606;2022-12-31T14:27:08;8.95;;;7.95;;
61806;SDS011;47726;52.766;6.606;2022-12-31T14:29:42;8.13;;;5.43;;
61806;SDS011;47726;52.766;6.606;2022-12-31T14:38:17;5.32;;;3.80;;
61806;SDS011;47726;52.766;6.606;2022-12-31T14:41:05;4.80;;;3.50;;
61806;SDS011;47726;52.766;6.606;2022-12-31T14:43:48;5.85;;;3.40;;
61806;SDS011;47726;52.766;6.606;2022-12-31T14:46:38;6.03;;;3.63;;
61806;SDS011;47726;52.766;6.606;2022-12-31T14:49:34;5.57;;;3.55;;
61806;SDS011;47726;52.766;6.606;2022-12-31T14:52:24;4.78;;;2.88;;
61806;SDS011;47726;52.766;6.606;2022-12-31T14:54:56;6.25;;;3.13;;
61806;SDS011;47726;52.766;6.606;2022-12-31T14:57:40;5.18;;;2.75;;
61806;SDS011;47726;52.766;6.606;2022-12-31T15:00:23;4.38;;;2.42;;
61806;SDS011;47726;52.766;6.606;2022-12-31T15:02:53;5.15;;;2.60;;
61806;SDS011;47726;52.766;6.606;2022-12-31T15:05:22;5.40;;;2.60;;
61806;SDS011;47726;52.766;6.606;2022-12-31T15:11:01;3.60;;;2.50;;
61806;SDS011;47726;52.766;6.606;2022-12-31T15:17:14;6.32;;;3.60;;
61806;SDS011;47726;52.766;6.606;2022-12-31T15:20:03;7.05;;;3.60;;
61806;SDS011;47726;52.766;6.606;2022-12-31T15:22:47;5.80;;;3.42;;
61806;SDS011;47726;52.766;6.606;2022-12-31T15:27:52;7.25;;;4.35;;
61806;SDS011;47726;52.766;6.606;2022-12-31T15:33:08;5.22;;;2.70;;
61806;SDS011;47726;52.766;6.606;2022-12-31T15:35:45;7.30;;;3.17;;
61806;SDS011;47726;52.766;6.606;2022-12-31T15:38:31;6.05;;;4.13;;
61806;SDS011;47726;52.766;6.606;2022-12-31T15:40:59;4.07;;;2.90;;
61806;SDS011;47726;52.766;6.606;2022-12-31T15:43:38;4.57;;;2.72;;
61806;SDS011;47726;52.766;6.606;2022-12-31T15:46:21;3.60;;;2.42;;
61806;SDS011;47726;52.766;6.606;2022-12-31T15:48:56;5.15;;;2.40;;
61806;SDS011;47726;52.766;6.606;2022-12-31T15:51:30;13.32;;;7.95;;
61806;SDS011;47726;52.766;6.606;2022-12-31T15:54:06;20.52;;;9.25;;
61806;SDS011;47726;52.766;6.606;2022-12-31T15:56:58;366.15;;;283.23;;
61806;SDS011;47726;52.766;6.606;2022-12-31T15:59:23;804.45;;;672.05;;
61806;SDS011;47726;52.766;6.606;2022-12-31T16:01:50;727.38;;;589.65;;
61806;SDS011;47726;52.766;6.606;2022-12-31T16:04:20;543.78;;;409.95;;
61806;SDS011;47726;52.766;6.606;2022-12-31T16:06:58;434.23;;;311.38;;
61806;SDS011;47726;52.766;6.606;2022-12-31T16:09:29;338.50;;;246.82;;
61806;SDS011;47726;52.766;6.606;2022-12-31T16:12:01;261.65;;;206.88;;
61806;SDS011;47726;52.766;6.606;2022-12-31T16:14:34;192.15;;;138.77;;
61806;SDS011;47726;52.766;6.606;2022-12-31T16:17:02;146.82;;;111.90;;
61806;SDS011;47726;52.766;6.606;2022-12-31T16:22:22;164.80;;;146.75;;
61806;SDS011;47726;52.766;6.606;2022-12-31T16:24:56;206.73;;;167.63;;
61806;SDS011;47726;52.766;6.606;2022-12-31T16:27:24;110.07;;;95.65;;
61806;SDS011;47726;52.766;6.606;2022-12-31T16:30:03;65.47;;;58.17;;
61806;SDS011;47726;52.766;6.606;2022-12-31T16:32:33;62.47;;;55.88;;
61806;SDS011;47726;52.766;6.606;2022-12-31T16:35:02;72.80;;;64.80;;
61806;SDS011;47726;52.766;6.606;2022-12-31T16:37:44;143.75;;;106.90;;
61806;SDS011;47726;52.766;6.606;2022-12-31T16:42:44;125.13;;;100.22;;
61806;SDS011;47726;52.766;6.606;2022-12-31T16:45:44;138.27;;;104.15;;
61806;SDS011;47726;52.766;6.606;2022-12-31T16:50:48;140.25;;;123.13;;
61806;SDS011;47726;52.766;6.606;2022-12-31T16:53:17;169.68;;;148.60;;
61806;SDS011;47726;52.766;6.606;2022-12-31T16:56:03;166.20;;;145.75;;
61806;SDS011;47726;52.766;6.606;2022-12-31T16:58:33;177.70;;;158.50;;
61806;SDS011;47726;52.766;6.606;2022-12-31T17:01:10;257.95;;;219.25;;
61806;SDS011;47726;52.766;6.606;2022-12-31T17:03:50;237.70;;;203.45;;
61806;SDS011;47726;52.766;6.606;2022-12-31T17:06:19;179.38;;;151.07;;
61806;SDS011;47726;52.766;6.606;2022-12-31T17:09:00;167.35;;;140.15;;
61806;SDS011;47726;52.766;6.606;2022-12-31T17:11:49;170.02;;;137.27;;
61806;SDS011;47726;52.766;6.606;2022-12-31T17:14:20;104.05;;;86.38;;
61806;SDS011;47726;52.766;6.606;2022-12-31T17:16:56;65.75;;;54.08;;
61806;SDS011;47726;52.766;6.606;2022-12-31T17:21:57;40.15;;;27.75;;
61806;SDS011;47726;52.766;6.606;2022-12-31T17:24:23;29.10;;;19.88;;
61806;SDS011;47726;52.766;6.606;2022-12-31T17:26:50;22.05;;;15.02;;
61806;SDS011;47726;52.766;6.606;2022-12-31T17:29:20;18.77;;;11.95;;
61806;SDS011;47726;52.766;6.606;2022-12-31T17:31:57;16.90;;;9.98;;
61806;SDS011;47726;52.766;6.606;2022-12-31T17:34:36;19.85;;;7.72;;
61806;SDS011;47726;52.766;6.606;2022-12-31T17:40:15;17.63;;;9.95;;
61806;SDS011;47726;52.766;6.606;2022-12-31T17:43:01;91.53;;;83.03;;
61806;SDS011;47726;52.766;6.606;2022-12-31T17:45:27;60.47;;;54.78;;
61806;SDS011;47726;52.766;6.606;2022-12-31T17:47:52;40.88;;;34.03;;
61806;SDS011;47726;52.766;6.606;2022-12-31T17:50:24;22.52;;;18.45;;
61806;SDS011;47726;52.766;6.606;2022-12-31T17:52:55;21.25;;;13.57;;
61806;SDS011;47726;52.766;6.606;2022-12-31T17:55:23;19.70;;;11.63;;
61806;SDS011;47726;52.766;6.606;2022-12-31T17:57:53;17.20;;;9.20;;
61806;SDS011;47726;52.766;6.606;2022-12-31T18:00:22;14.55;;;9.48;;
61806;SDS011;47726;52.766;6.606;2022-12-31T18:02:49;19.83;;;14.05;;
61806;SDS011;47726;52.766;6.606;2022-12-31T18:05:16;68.45;;;61.33;;
61806;SDS011;47726;52.766;6.606;2022-12-31T18:07:43;54.55;;;48.83;;
61806;SDS011;47726;52.766;6.606;2022-12-31T18:10:08;37.10;;;30.08;;
61806;SDS011;47726;52.766;6.606;2022-12-31T18:12:37;32.75;;;27.92;;
61806;SDS011;47726;52.766;6.606;2022-12-31T18:15:03;250.45;;;225.45;;
61806;SDS011;47726;52.766;6.606;2022-12-31T18:17:29;83.82;;;75.32;;
61806;SDS011;47726;52.766;6.606;2022-12-31T18:19:57;58.90;;;52.47;;
61806;SDS011;47726;52.766;6.606;2022-12-31T18:22:23;51.10;;;45.13;;
61806;SDS011;47726;52.766;6.606;2022-12-31T18:24:50;102.88;;;92.15;;
61806;SDS011;47726;52.766;6.606;2022-12-31T18:27:18;170.23;;;152.32;;
61806;SDS011;47726;52.766;6.606;2022-12-31T18:29:44;1524.22;;;990.10;;
61806;SDS011;47726;52.766;6.606;2022-12-31T18:32:21;890.03;;;761.75;;
61806;SDS011;47726;52.766;6.606;2022-12-31T18:34:48;669.80;;;596.88;;
61806;SDS011;47726;52.766;6.606;2022-12-31T18:37:14;594.15;;;507.08;;
61806;SDS011;47726;52.766;6.606;2022-12-31T18:39:40;1711.88;;;999.90;;
61806;SDS011;47726;52.766;6.606;2022-12-31T18:42:06;871.80;;;701.28;;
61806;SDS011;47726;52.766;6.606;2022-12-31T18:44:36;456.25;;;335.02;;
61806;SDS011;47726;52.766;6.606;2022-12-31T18:47:02;189.98;;;132.93;;
61806;SDS011;47726;52.766;6.606;2022-12-31T18:49:27;80.85;;;62.05;;
61806;SDS011;47726;52.766;6.606;2022-12-31T18:51:53;40.28;;;30.20;;
61806;SDS011;47726;52.766;6.606;2022-12-31T18:54:19;30.05;;;21.42;;
61806;SDS011;47726;52.766;6.606;2022-12-31T18:56:45;24.73;;;17.55;;
61806;SDS011;47726;52.766;6.606;2022-12-31T18:59:11;22.63;;;14.43;;
61806;SDS011;47726;52.766;6.606;2022-12-31T19:01:38;19.17;;;11.88;;
61806;SDS011;47726;52.766;6.606;2022-12-31T19:04:12;16.27;;;10.57;;
61806;SDS011;47726;52.766;6.606;2022-12-31T19:06:40;15.18;;;9.60;;
61806;SDS011;47726;52.766;6.606;2022-12-31T19:09:06;14.50;;;9.35;;
61806;SDS011;47726;52.766;6.606;2022-12-31T19:11:32;15.43;;;9.07;;
61806;SDS011;47726;52.766;6.606;2022-12-31T19:13:59;15.43;;;8.45;;